createdAt,value
2019-04-26T00:00:05.053Z,17.82
2019-04-26T00:01:05.059Z,17.84
2019-04-26T00:02:05.055Z,17.82
2019-04-26T00:03:05.081Z,17.82
2019-04-26T00:04:05.059Z,17.87
2019-04-26T00:05:05.068Z,17.85
2019-04-26T00:06:05.063Z,17.78
2019-04-26T00:07:05.063Z,17.92
2019-04-26T00:08:05.095Z,17.85
2019-04-26T00:09:05.067Z,17.82
2019-04-26T00:10:05.070Z,17.85
2019-04-26T00:11:05.068Z,18.03
2019-04-26T00:12:05.090Z,18.09
2019-04-26T00:13:05.075Z,17.97
2019-04-26T00:14:05.104Z,18.07
2019-04-26T00:15:05.080Z,18.07
2019-04-26T00:16:05.082Z,18.10
2019-04-26T00:17:05.081Z,18.25
2019-04-26T00:18:05.085Z,18.27
2019-04-26T00:19:05.110Z,18.24
2019-04-26T00:20:05.088Z,18.10
2019-04-26T00:21:05.089Z,18.09
2019-04-26T00:22:05.092Z,18.06
2019-04-26T00:23:05.093Z,18.02
2019-04-26T00:24:05.119Z,17.99
2019-04-26T00:25:05.093Z,17.84
2019-04-26T00:26:05.098Z,17.94
2019-04-26T00:27:05.096Z,17.94
2019-04-26T00:28:05.100Z,17.92
2019-04-26T00:29:05.132Z,17.84
2019-04-26T00:30:05.103Z,17.76
2019-04-26T00:31:05.108Z,17.71
2019-04-26T00:32:05.116Z,17.85
2019-04-26T00:33:05.109Z,17.82
2019-04-26T00:34:05.138Z,17.81
2019-04-26T00:35:05.117Z,17.87
2019-04-26T00:36:05.110Z,17.85
2019-04-26T00:37:05.113Z,17.92
2019-04-26T00:38:05.116Z,17.82
2019-04-26T00:39:05.143Z,17.84
2019-04-26T00:40:05.138Z,17.88
2019-04-26T00:41:05.123Z,17.81
2019-04-26T00:42:05.122Z,17.64
2019-04-26T00:43:05.123Z,17.67
2019-04-26T00:44:05.165Z,17.79
2019-04-26T00:45:05.130Z,17.87
2019-04-26T00:46:05.128Z,17.74
2019-04-26T00:47:05.130Z,17.66
2019-04-26T00:48:05.130Z,17.64
2019-04-26T00:49:05.135Z,17.59
2019-04-26T00:50:05.164Z,17.40
2019-04-26T00:51:05.137Z,17.47
2019-04-26T00:52:05.137Z,17.38
2019-04-26T00:53:05.142Z,17.40
2019-04-26T00:54:05.160Z,17.29
2019-04-26T00:55:05.169Z,17.35
2019-04-26T00:56:05.145Z,17.41
2019-04-26T00:57:05.146Z,17.38
2019-04-26T00:58:05.150Z,17.23
2019-04-26T00:59:05.149Z,17.14
2019-04-26T01:00:05.178Z,17.06
2019-04-26T01:01:05.166Z,16.96
2019-04-26T01:02:05.154Z,16.48
2019-04-26T01:03:05.156Z,16.23
2019-04-26T01:04:05.201Z,16.07
2019-04-26T01:05:05.184Z,15.97
2019-04-26T01:06:05.159Z,15.74
2019-04-26T01:07:05.160Z,15.70
2019-04-26T01:08:05.162Z,15.79
2019-04-26T01:09:05.166Z,15.70
2019-04-26T01:10:05.191Z,15.57
2019-04-26T01:11:05.165Z,15.28
2019-04-26T01:12:05.167Z,15.11
2019-04-26T01:13:05.170Z,14.91
2019-04-26T01:14:05.170Z,14.88
2019-04-26T01:15:05.212Z,14.84
2019-04-26T01:16:05.171Z,14.84
2019-04-26T01:17:05.172Z,15.03
2019-04-26T01:18:05.175Z,15.05
2019-04-26T01:19:05.177Z,15.12
2019-04-26T01:20:05.203Z,15.05
2019-04-26T01:21:05.175Z,15.01
2019-04-26T01:22:05.181Z,14.81
2019-04-26T01:23:05.182Z,14.90
2019-04-26T01:24:05.177Z,14.75
2019-04-26T01:25:05.206Z,14.69
2019-04-26T01:26:05.181Z,14.57
2019-04-26T01:27:05.190Z,14.67
2019-04-26T01:28:05.187Z,14.47
2019-04-26T01:29:05.181Z,14.49
2019-04-26T01:30:05.188Z,14.34
2019-04-26T01:31:05.209Z,14.21
2019-04-26T01:32:05.185Z,14.32
2019-04-26T01:33:05.188Z,14.29
2019-04-26T01:34:05.188Z,14.32
2019-04-26T01:35:05.186Z,14.19
2019-04-26T01:36:12.917Z,14.24
2019-04-26T01:37:05.189Z,14.20
2019-04-26T01:38:05.190Z,14.13
2019-04-26T01:39:05.208Z,14.09
2019-04-26T01:40:05.200Z,13.99
2019-04-26T01:41:05.218Z,13.98
2019-04-26T01:42:05.192Z,13.92
2019-04-26T01:43:05.191Z,13.96
2019-04-26T01:44:05.191Z,14.01
2019-04-26T01:45:05.198Z,14.02
2019-04-26T01:46:05.230Z,13.95
2019-04-26T01:47:05.191Z,13.88
2019-04-26T01:48:05.192Z,13.92
2019-04-26T01:49:05.198Z,13.92
2019-04-26T01:50:05.192Z,13.92
2019-04-26T01:51:05.221Z,14.01
2019-04-26T01:52:05.219Z,13.95
2019-04-26T01:53:05.197Z,13.89
2019-04-26T01:54:05.194Z,13.91
2019-04-26T01:55:05.197Z,13.83
2019-04-26T01:56:05.224Z,13.84
2019-04-26T01:57:05.232Z,13.81
2019-04-26T01:58:05.252Z,13.74
2019-04-26T01:59:05.193Z,13.77
2019-04-26T02:00:05.205Z,13.74
2019-04-26T02:01:05.225Z,13.69
2019-04-26T02:02:05.196Z,13.70
2019-04-26T02:03:05.201Z,13.74
2019-04-26T02:04:05.194Z,13.84
2019-04-26T02:05:05.195Z,13.87
2019-04-26T02:06:05.223Z,13.92
2019-04-26T02:07:05.195Z,13.94
2019-04-26T02:08:05.194Z,14.06
2019-04-26T02:09:05.200Z,14.09
2019-04-26T02:10:05.206Z,14.09
2019-04-26T02:11:05.222Z,14.09
2019-04-26T02:12:05.196Z,14.16
2019-04-26T02:13:05.198Z,14.34
2019-04-26T02:14:05.195Z,14.46
2019-04-26T02:15:05.193Z,14.37
2019-04-26T02:16:05.197Z,14.31
2019-04-26T02:17:05.228Z,14.24
2019-04-26T02:18:05.197Z,14.04
2019-04-26T02:19:05.191Z,13.88
2019-04-26T02:20:05.193Z,13.61
2019-04-26T02:21:05.198Z,13.49
2019-04-26T02:22:05.220Z,13.40
2019-04-26T02:23:05.194Z,13.36
2019-04-26T02:24:05.196Z,13.33
2019-04-26T02:25:05.195Z,13.29
2019-04-26T02:26:05.195Z,13.24
2019-04-26T02:27:05.221Z,13.12
2019-04-26T02:28:05.199Z,13.15
2019-04-26T02:29:05.195Z,13.21
2019-04-26T02:30:05.198Z,13.17
2019-04-26T02:31:05.195Z,13.12
2019-04-26T02:32:05.224Z,13.18
2019-04-26T02:33:05.196Z,13.17
2019-04-26T02:34:05.202Z,13.14
2019-04-26T02:35:05.192Z,13.09
2019-04-26T02:36:05.192Z,13.04
2019-04-26T02:37:05.222Z,13.04
2019-04-26T02:38:05.204Z,13.07
2019-04-26T02:39:05.194Z,13.17
2019-04-26T02:40:05.192Z,13.33
2019-04-26T02:41:05.202Z,13.43
2019-04-26T02:42:05.216Z,13.40
2019-04-26T02:43:05.195Z,13.38
2019-04-26T02:44:05.201Z,13.41
2019-04-26T02:45:05.193Z,13.30
2019-04-26T02:46:05.193Z,13.30
2019-04-26T02:47:05.221Z,13.18
2019-04-26T02:48:05.191Z,13.14
2019-04-26T02:49:05.190Z,13.11
2019-04-26T02:50:05.191Z,13.15
2019-04-26T02:51:05.186Z,13.11
2019-04-26T02:52:05.185Z,13.29
2019-04-26T02:53:05.214Z,13.29
2019-04-26T02:54:05.212Z,13.33
2019-04-26T02:55:05.191Z,13.30
2019-04-26T02:56:05.186Z,13.24
2019-04-26T02:57:05.187Z,13.11
2019-04-26T02:58:05.221Z,13.02
2019-04-26T02:59:05.182Z,12.93
2019-04-26T03:00:05.189Z,12.84
2019-04-26T03:01:05.186Z,12.88
2019-04-26T03:02:05.184Z,12.77
2019-04-26T03:03:05.217Z,12.78
2019-04-26T03:04:05.182Z,12.75
2019-04-26T03:05:05.273Z,12.64
2019-04-26T03:06:05.183Z,12.59
2019-04-26T03:07:05.180Z,12.42
2019-04-26T03:08:05.208Z,12.34
2019-04-26T03:09:05.198Z,12.46
2019-04-26T03:10:05.177Z,12.42
2019-04-26T03:11:05.177Z,12.42
2019-04-26T03:12:05.195Z,12.41
2019-04-26T03:13:05.213Z,12.30
2019-04-26T03:14:05.174Z,12.26
2019-04-26T03:15:13.860Z,12.11
2019-04-26T03:16:05.173Z,12.06
2019-04-26T03:17:05.172Z,12.01
2019-04-26T03:18:05.197Z,12.02
2019-04-26T03:19:05.174Z,11.89
2019-04-26T03:20:05.172Z,11.97
2019-04-26T03:21:05.173Z,11.96
2019-04-26T03:22:05.171Z,11.87
2019-04-26T03:23:05.195Z,11.82
2019-04-26T03:24:05.169Z,11.82
2019-04-26T03:25:05.168Z,11.67
2019-04-26T03:26:05.167Z,11.61
2019-04-26T03:27:05.165Z,11.38
2019-04-26T03:28:05.194Z,11.29
2019-04-26T03:29:05.165Z,11.29
2019-04-26T03:30:19.889Z,11.31
2019-04-26T03:31:05.165Z,11.28
2019-04-26T03:32:05.169Z,11.01
2019-04-26T03:33:05.215Z,10.94
2019-04-26T03:34:05.240Z,10.83
2019-04-26T03:35:05.161Z,10.63
2019-04-26T03:36:05.167Z,10.66
2019-04-26T03:37:19.372Z,10.46
2019-04-26T03:38:05.155Z,10.40
2019-04-26T03:39:05.180Z,10.39
2019-04-26T03:40:05.155Z,10.39
2019-04-26T03:41:05.151Z,10.42
2019-04-26T03:42:05.150Z,10.36
2019-04-26T03:43:05.151Z,10.36
2019-04-26T03:44:05.178Z,10.40
2019-04-26T03:45:05.159Z,10.39
2019-04-26T03:46:05.150Z,10.30
2019-04-26T03:47:05.146Z,10.28
2019-04-26T03:48:05.142Z,10.32
2019-04-26T03:49:05.171Z,10.28
2019-04-26T03:50:05.140Z,10.32
2019-04-26T03:51:05.141Z,10.43
2019-04-26T03:52:05.138Z,10.42
2019-04-26T03:53:05.137Z,10.42
2019-04-26T03:54:05.168Z,10.47
2019-04-26T03:55:05.130Z,10.55
2019-04-26T03:56:05.134Z,10.52
2019-04-26T03:57:05.134Z,10.51
2019-04-26T03:58:05.139Z,10.56
2019-04-26T03:59:05.164Z,10.76
2019-04-26T04:00:05.138Z,10.88
2019-04-26T04:01:05.129Z,10.83
2019-04-26T04:02:05.125Z,10.83
2019-04-26T04:03:05.122Z,10.89
2019-04-26T04:04:05.148Z,10.74
2019-04-26T04:05:05.121Z,10.83
2019-04-26T04:06:05.117Z,10.88
2019-04-26T04:07:05.293Z,10.83
2019-04-26T04:08:05.114Z,10.81
2019-04-26T04:09:05.113Z,10.81
2019-04-26T04:10:05.162Z,10.78
2019-04-26T04:11:05.112Z,10.86
2019-04-26T04:12:11.774Z,10.80
2019-04-26T04:13:05.174Z,10.88
2019-04-26T04:14:05.248Z,10.88
2019-04-26T04:15:05.126Z,10.86
2019-04-26T04:16:05.102Z,10.83
2019-04-26T04:17:05.104Z,10.95
2019-04-26T04:18:05.103Z,11.02
2019-04-26T04:19:05.098Z,11.02
2019-04-26T04:20:05.124Z,10.84
2019-04-26T04:21:05.099Z,10.86
2019-04-26T04:22:05.092Z,10.78
2019-04-26T04:23:05.090Z,10.80
2019-04-26T04:24:05.091Z,10.84
2019-04-26T04:25:05.115Z,10.95
2019-04-26T04:26:05.088Z,11.03
2019-04-26T04:27:05.086Z,11.01
2019-04-26T04:28:05.087Z,11.17
2019-04-26T04:29:05.081Z,11.27
2019-04-26T04:30:05.110Z,11.47
2019-04-26T04:31:05.085Z,11.64
2019-04-26T04:32:05.079Z,11.70
2019-04-26T04:33:05.077Z,11.82
2019-04-26T04:34:05.086Z,11.86
2019-04-26T04:35:06.774Z,11.99
2019-04-26T04:36:05.075Z,11.96
2019-04-26T04:37:05.078Z,11.99
2019-04-26T04:38:09.593Z,12.06
2019-04-26T04:39:12.319Z,12.16
2019-04-26T04:40:05.095Z,12.44
2019-04-26T04:41:08.227Z,12.48
2019-04-26T04:42:05.086Z,12.49
2019-04-26T04:43:05.136Z,12.63
2019-04-26T04:44:05.124Z,12.71
2019-04-26T04:45:05.086Z,12.74
2019-04-26T04:46:05.101Z,12.63
2019-04-26T04:47:22.251Z,12.62
2019-04-26T04:48:05.083Z,12.38
2019-04-26T04:49:05.059Z,12.48
2019-04-26T04:50:05.084Z,12.38
2019-04-26T04:51:05.207Z,12.38
2019-04-26T04:52:05.082Z,12.38
2019-04-26T04:53:05.053Z,12.39
2019-04-26T04:54:05.051Z,12.26
2019-04-26T04:55:07.716Z,12.21
2019-04-26T04:56:05.049Z,12.21
2019-04-26T04:57:05.052Z,12.39
2019-04-26T04:58:05.061Z,12.56
2019-04-26T04:59:05.045Z,12.66
2019-04-26T05:00:05.048Z,12.75
2019-04-26T05:01:05.077Z,12.85
2019-04-26T05:02:05.050Z,12.81
2019-04-26T05:03:05.044Z,13.30
2019-04-26T05:04:05.042Z,13.59
2019-04-26T05:05:05.047Z,13.87
2019-04-26T05:06:07.803Z,13.92
2019-04-26T05:07:05.043Z,13.92
2019-04-26T05:08:06.774Z,14.10
2019-04-26T05:09:05.038Z,14.17
2019-04-26T05:10:05.906Z,14.39
2019-04-26T05:11:05.067Z,14.39
2019-04-26T05:12:05.053Z,14.50
2019-04-26T05:13:05.039Z,14.54
2019-04-26T05:14:05.035Z,14.34
2019-04-26T05:15:05.035Z,14.34
2019-04-26T05:16:05.063Z,14.04
2019-04-26T05:17:05.041Z,13.73
2019-04-26T05:18:05.037Z,13.67
2019-04-26T05:19:05.033Z,13.62
2019-04-26T05:20:05.036Z,13.63
2019-04-26T05:21:05.063Z,13.77
2019-04-26T05:22:05.034Z,13.73
2019-04-26T05:23:05.031Z,13.61
2019-04-26T05:24:05.033Z,13.79
2019-04-26T05:25:05.033Z,13.69
2019-04-26T05:26:05.059Z,13.76
2019-04-26T05:27:05.032Z,13.80
2019-04-26T05:28:05.032Z,13.70
2019-04-26T05:29:05.042Z,13.70
2019-04-26T05:30:05.108Z,13.81
2019-04-26T05:31:05.061Z,13.99
2019-04-26T05:32:05.033Z,14.19
2019-04-26T05:33:05.033Z,14.37
2019-04-26T05:34:05.035Z,14.49
2019-04-26T05:35:05.038Z,14.71
2019-04-26T05:36:05.069Z,15.02
2019-04-26T05:37:05.034Z,15.13
2019-04-26T05:38:12.536Z,15.23
2019-04-26T05:39:05.060Z,15.23
2019-04-26T05:40:05.035Z,15.35
2019-04-26T05:41:05.038Z,15.28
2019-04-26T05:42:05.063Z,15.28
2019-04-26T05:43:05.040Z,15.20
2019-04-26T05:44:05.037Z,15.19
2019-04-26T05:45:05.038Z,15.28
2019-04-26T05:46:05.040Z,15.31
2019-04-26T05:47:05.069Z,15.35
2019-04-26T05:48:11.250Z,15.36
2019-04-26T05:49:05.041Z,15.38
2019-04-26T05:50:05.066Z,15.36
2019-04-26T05:51:05.041Z,15.36
2019-04-26T05:52:05.067Z,15.38
2019-04-26T05:53:05.051Z,15.38
2019-04-26T05:54:05.045Z,15.31
2019-04-26T05:55:05.044Z,15.28
2019-04-26T05:56:05.045Z,15.33
2019-04-26T05:57:05.086Z,15.33
2019-04-26T05:58:05.050Z,15.23
2019-04-26T05:59:05.051Z,15.23
2019-04-26T06:00:05.917Z,15.30
2019-04-26T06:01:05.049Z,15.42
2019-04-26T06:02:05.078Z,15.31
2019-04-26T06:03:05.049Z,15.31
2019-04-26T06:04:05.055Z,15.33
2019-04-26T06:05:05.053Z,15.35
2019-04-26T06:06:05.469Z,15.28
2019-04-26T06:07:05.079Z,15.51
2019-04-26T06:08:05.056Z,15.51
2019-04-26T06:09:05.059Z,15.61
2019-04-26T06:10:05.057Z,15.67
2019-04-26T06:11:05.059Z,15.64
2019-04-26T06:12:05.084Z,15.72
2019-04-26T06:13:05.061Z,15.52
2019-04-26T06:14:05.079Z,15.67
2019-04-26T06:15:05.060Z,15.82
2019-04-26T06:16:05.074Z,16.06
2019-04-26T06:17:05.098Z,16.40
2019-04-26T06:18:05.070Z,16.63
2019-04-26T06:19:05.068Z,16.78
2019-04-26T06:20:05.127Z,16.73
2019-04-26T06:21:05.069Z,16.73
2019-04-26T06:22:05.072Z,16.78
2019-04-26T06:23:05.103Z,16.88
2019-04-26T06:24:05.078Z,16.89
2019-04-26T06:25:05.077Z,16.92
2019-04-26T06:26:05.084Z,16.90
2019-04-26T06:27:13.595Z,16.78
2019-04-26T06:28:05.123Z,16.70
2019-04-26T06:29:05.353Z,16.81
2019-04-26T06:30:05.088Z,16.83
2019-04-26T06:31:05.086Z,16.92
2019-04-26T06:32:05.084Z,17.29
2019-04-26T06:33:06.237Z,17.43
2019-04-26T06:34:05.088Z,17.48
2019-04-26T06:35:05.091Z,17.40
2019-04-26T06:36:05.131Z,17.29
2019-04-26T06:37:05.094Z,17.25
2019-04-26T06:38:05.122Z,17.44
2019-04-26T06:39:05.101Z,17.55
2019-04-26T06:40:05.101Z,17.66
2019-04-26T06:41:05.100Z,17.59
2019-04-26T06:42:05.305Z,17.54
2019-04-26T06:43:05.149Z,17.41
2019-04-26T06:44:05.112Z,17.54
2019-04-26T06:45:05.116Z,17.50
2019-04-26T06:46:05.116Z,17.57
2019-04-26T06:47:05.124Z,17.69
2019-04-26T06:48:06.078Z,17.82
2019-04-26T06:49:05.486Z,18.19
2019-04-26T06:50:05.572Z,18.33
2019-04-26T06:51:05.125Z,18.64
2019-04-26T06:52:05.188Z,18.98
2019-04-26T06:53:06.233Z,19.18
2019-04-26T06:54:05.577Z,19.33
2019-04-26T06:55:05.131Z,19.29
2019-04-26T06:56:05.147Z,18.98
2019-04-26T06:57:08.852Z,18.47
2019-04-26T06:58:05.141Z,18.54
2019-04-26T06:59:05.855Z,18.42
2019-04-26T07:00:05.149Z,18.46
2019-04-26T07:01:05.435Z,18.42
2019-04-26T07:02:06.094Z,18.79
2019-04-26T07:03:05.683Z,18.54
2019-04-26T07:04:05.182Z,18.59
2019-04-26T07:05:05.161Z,18.73
2019-04-26T07:06:05.167Z,18.73
2019-04-26T07:07:05.169Z,18.46
2019-04-26T07:08:05.341Z,18.50
2019-04-26T07:09:05.414Z,18.40
2019-04-26T07:10:06.235Z,18.37
2019-04-26T07:11:05.229Z,18.34
2019-04-26T07:12:05.231Z,18.37
2019-04-26T07:13:05.187Z,18.52
2019-04-26T07:14:05.217Z,18.58
2019-04-26T07:15:05.835Z,18.70
2019-04-26T07:16:17.949Z,18.97
2019-04-26T07:17:05.199Z,18.99
2019-04-26T07:18:06.334Z,19.02
2019-04-26T07:19:05.603Z,19.14
2019-04-26T07:20:06.095Z,19.15
2019-04-26T07:21:05.260Z,19.25
2019-04-26T07:22:06.170Z,18.70
2019-04-26T07:23:05.894Z,18.61
2019-04-26T07:24:05.564Z,18.58
2019-04-26T07:25:05.976Z,18.49
2019-04-26T07:26:05.908Z,18.52
2019-04-26T07:27:05.311Z,18.67
2019-04-26T07:28:08.096Z,18.83
2019-04-26T07:29:05.246Z,18.74
2019-04-26T07:30:05.326Z,18.82
2019-04-26T07:31:06.142Z,18.80
2019-04-26T07:32:05.331Z,18.76
2019-04-26T07:33:06.226Z,18.90
2019-04-26T07:34:05.265Z,19.05
2019-04-26T07:35:05.345Z,18.82
2019-04-26T07:36:05.580Z,18.58
2019-04-26T07:37:05.281Z,18.61
2019-04-26T07:38:05.308Z,18.73
2019-04-26T07:39:16.686Z,18.73
2019-04-26T07:40:05.325Z,18.98
2019-04-26T07:41:05.298Z,19.24
2019-04-26T07:42:05.303Z,19.33
2019-04-26T07:43:06.041Z,19.48
2019-04-26T07:44:05.606Z,19.88
2019-04-26T07:45:05.609Z,19.90
2019-04-26T07:46:05.857Z,19.87
2019-04-26T07:47:05.982Z,19.51
2019-04-26T07:48:05.328Z,19.39
2019-04-26T07:49:05.967Z,19.35
2019-04-26T07:50:05.367Z,19.36
2019-04-26T07:51:06.402Z,19.57
2019-04-26T07:52:06.317Z,19.47
2019-04-26T07:53:05.352Z,19.36
2019-04-26T07:54:05.360Z,19.83
2019-04-26T07:55:06.564Z,19.88
2019-04-26T07:56:05.362Z,19.79
2019-04-26T07:57:06.605Z,19.97
2019-04-26T07:58:05.375Z,19.93
2019-04-26T07:59:06.004Z,19.86
2019-04-26T08:00:06.505Z,19.38
2019-04-26T08:01:05.500Z,19.47
2019-04-26T08:02:06.570Z,19.10
2019-04-26T08:03:05.517Z,19.32
2019-04-26T08:04:05.406Z,19.61
2019-04-26T08:05:05.828Z,19.72
2019-04-26T08:06:05.803Z,19.93
2019-04-26T08:07:06.320Z,19.83
2019-04-26T08:08:06.809Z,19.84
2019-04-26T08:09:05.971Z,20.03
2019-04-26T08:10:05.986Z,20.24
2019-04-26T08:11:06.191Z,20.54
2019-04-26T08:12:06.094Z,20.56
2019-04-26T08:13:06.076Z,20.61
2019-04-26T08:14:06.205Z,20.77
2019-04-26T08:15:06.092Z,20.65
2019-04-26T08:16:06.736Z,20.86
2019-04-26T08:17:06.558Z,21.02
2019-04-26T08:18:06.585Z,21.29
2019-04-26T08:19:06.927Z,21.38
2019-04-26T08:20:09.006Z,21.66
2019-04-26T08:21:09.937Z,21.78
2019-04-26T08:22:18.290Z,22.16
2019-04-26T08:23:08.643Z,22.47
2019-04-26T08:24:06.183Z,22.65
2019-04-26T08:25:06.670Z,22.43
2019-04-26T08:26:06.524Z,22.59
2019-04-26T08:27:13.799Z,22.34
2019-04-26T08:28:05.606Z,22.72
2019-04-26T08:29:06.499Z,23.07
2019-04-26T08:30:10.273Z,23.43
2019-04-26T08:31:07.338Z,23.47
2019-04-26T08:32:05.585Z,23.62
2019-04-26T08:33:07.799Z,23.80
2019-04-26T08:34:06.062Z,24.10
2019-04-26T08:35:08.185Z,24.00
2019-04-26T08:36:06.245Z,24.00
2019-04-26T08:37:06.710Z,24.05
2019-04-26T08:38:07.987Z,23.72
2019-04-26T08:39:05.957Z,23.65
2019-04-26T08:40:05.660Z,23.35
2019-04-26T08:41:07.129Z,23.39
2019-04-26T08:42:12.126Z,23.17
2019-04-26T08:43:05.689Z,22.74
2019-04-26T08:44:06.874Z,22.50
2019-04-26T08:45:08.882Z,22.34
2019-04-26T08:46:07.696Z,21.88
2019-04-26T08:47:06.099Z,21.53
2019-04-26T08:48:05.745Z,21.50
2019-04-26T08:49:06.486Z,21.91
2019-04-26T08:50:09.749Z,22.06
2019-04-26T08:51:05.775Z,22.14
2019-04-26T08:52:14.194Z,22.27
2019-04-26T08:53:05.792Z,22.34
2019-04-26T08:54:05.808Z,22.65
2019-04-26T08:55:05.807Z,22.74
2019-04-26T08:56:05.822Z,22.44
2019-04-26T08:57:05.857Z,22.53
2019-04-26T08:58:05.836Z,22.99
2019-04-26T08:59:05.849Z,22.74
2019-04-26T09:00:05.858Z,22.44
2019-04-26T09:01:05.869Z,22.22
2019-04-26T09:02:05.906Z,22.06
2019-04-26T09:03:11.592Z,21.91
2019-04-26T09:04:05.900Z,22.12
2019-04-26T09:05:05.951Z,22.43
2019-04-26T09:06:05.917Z,22.57
2019-04-26T09:07:05.951Z,22.56
2019-04-26T09:08:05.938Z,22.41
2019-04-26T09:09:05.946Z,23.05
2019-04-26T09:10:11.310Z,23.47
2019-04-26T09:11:05.967Z,23.27
2019-04-26T09:12:08.415Z,23.02
2019-04-26T09:13:05.989Z,22.87
2019-04-26T09:14:06.699Z,23.26
2019-04-26T09:15:07.080Z,23.09
2019-04-26T09:16:06.072Z,22.83
2019-04-26T09:17:06.486Z,23.02
2019-04-26T09:18:06.907Z,23.50
2019-04-26T09:19:06.057Z,23.52
2019-04-26T09:20:07.840Z,23.07
2019-04-26T09:21:06.067Z,23.09
2019-04-26T09:22:12.985Z,22.75
2019-04-26T09:23:06.129Z,22.54
2019-04-26T09:24:08.256Z,22.59
2019-04-26T09:25:06.108Z,23.24
2019-04-26T09:26:08.681Z,23.89
2019-04-26T09:27:06.167Z,24.50
2019-04-26T09:28:06.166Z,24.63
2019-04-26T09:29:06.428Z,24.08
2019-04-26T09:30:07.364Z,23.49
2019-04-26T09:31:06.177Z,23.32
2019-04-26T09:32:06.538Z,22.96
2019-04-26T09:33:06.260Z,22.75
2019-04-26T09:34:10.001Z,22.78
2019-04-26T09:35:06.216Z,23.04
2019-04-26T09:36:06.225Z,22.97
2019-04-26T09:37:06.241Z,23.05
2019-04-26T09:38:06.281Z,23.05
2019-04-26T09:39:08.281Z,22.87
2019-04-26T09:40:10.649Z,22.59
2019-04-26T09:41:06.817Z,22.46
2019-04-26T09:42:09.610Z,22.13
2019-04-26T09:43:06.322Z,21.79
2019-04-26T09:44:06.305Z,21.54
2019-04-26T09:45:06.313Z,21.74
2019-04-26T09:46:06.324Z,21.90
2019-04-26T09:47:06.382Z,22.07
2019-04-26T09:48:06.370Z,22.31
2019-04-26T09:49:07.050Z,22.12
2019-04-26T09:50:06.403Z,22.14
2019-04-26T09:51:06.367Z,22.27
2019-04-26T09:52:06.380Z,22.46
2019-04-26T09:53:06.602Z,22.77
2019-04-26T09:54:06.422Z,22.43
2019-04-26T09:55:06.403Z,22.57
2019-04-26T09:56:06.417Z,22.68
2019-04-26T09:57:06.435Z,22.75
2019-04-26T09:58:08.639Z,22.83
2019-04-26T09:59:06.794Z,22.78
2019-04-26T10:00:06.452Z,22.93
2019-04-26T10:01:06.490Z,23.11
2019-04-26T10:02:06.465Z,23.32
2019-04-26T10:03:09.496Z,23.52
2019-04-26T10:04:06.511Z,23.70
2019-04-26T10:05:08.022Z,23.80
2019-04-26T10:06:08.152Z,23.83
2019-04-26T10:07:06.513Z,23.57
2019-04-26T10:08:08.343Z,23.46
2019-04-26T10:09:06.558Z,23.53
2019-04-26T10:10:06.548Z,23.60
2019-04-26T10:11:09.633Z,23.53
2019-04-26T10:12:06.567Z,23.68
2019-04-26T10:13:06.568Z,23.95
2019-04-26T10:14:06.605Z,24.05
2019-04-26T10:15:06.594Z,24.02
2019-04-26T10:16:06.602Z,24.05
2019-04-26T10:17:06.618Z,23.57
2019-04-26T10:18:08.123Z,23.22
2019-04-26T10:19:06.660Z,23.17
2019-04-26T10:20:06.639Z,23.19
2019-04-26T10:21:06.658Z,23.11
2019-04-26T10:22:06.660Z,23.47
2019-04-26T10:23:06.671Z,23.80
2019-04-26T10:24:08.347Z,23.79
2019-04-26T10:25:08.709Z,23.70
2019-04-26T10:26:06.701Z,23.62
2019-04-26T10:27:06.713Z,23.52
2019-04-26T10:28:06.722Z,23.04
2019-04-26T10:29:06.760Z,22.86
2019-04-26T10:30:09.164Z,22.80
2019-04-26T10:31:06.754Z,23.23
2019-04-26T10:32:06.767Z,23.17
2019-04-26T10:33:06.777Z,23.12
2019-04-26T10:34:07.656Z,22.92
2019-04-26T10:35:06.800Z,22.67
2019-04-26T10:36:06.808Z,22.43
2019-04-26T10:37:07.973Z,22.64
2019-04-26T10:38:06.831Z,22.86
2019-04-26T10:39:06.863Z,22.89
2019-04-26T10:40:06.846Z,22.87
2019-04-26T10:41:06.857Z,22.87
2019-04-26T10:42:06.866Z,22.69
2019-04-26T10:43:06.878Z,22.67
2019-04-26T10:44:06.913Z,22.67
2019-04-26T10:45:10.482Z,22.47
2019-04-26T10:46:06.909Z,22.72
2019-04-26T10:47:06.921Z,22.64
2019-04-26T10:48:09.575Z,22.71
2019-04-26T10:49:09.066Z,22.84
2019-04-26T10:50:06.944Z,23.11
2019-04-26T10:51:07.711Z,23.22
2019-04-26T10:52:06.968Z,22.87
2019-04-26T10:53:07.511Z,22.77
2019-04-26T10:54:07.713Z,22.86
2019-04-26T10:55:07.021Z,22.93
2019-04-26T10:56:07.001Z,23.14
2019-04-26T10:57:07.013Z,23.53
2019-04-26T10:58:07.023Z,23.82
2019-04-26T10:59:09.819Z,24.08
2019-04-26T11:00:07.072Z,24.37
2019-04-26T11:01:07.057Z,24.23
2019-04-26T11:02:07.063Z,23.77
2019-04-26T11:03:07.072Z,23.04
2019-04-26T11:04:07.086Z,23.20
2019-04-26T11:05:07.119Z,23.14
2019-04-26T11:06:07.107Z,23.19
2019-04-26T11:07:07.122Z,23.55
2019-04-26T11:08:07.152Z,24.02
2019-04-26T11:09:07.146Z,24.87
2019-04-26T11:10:07.179Z,25.24
2019-04-26T11:11:07.215Z,25.65
2019-04-26T11:12:07.900Z,25.57
2019-04-26T11:13:07.190Z,25.37
2019-04-26T11:14:07.200Z,24.91
2019-04-26T11:15:07.238Z,24.38
2019-04-26T11:16:08.882Z,24.10
2019-04-26T11:17:07.239Z,23.95
2019-04-26T11:18:07.273Z,24.01
2019-04-26T11:19:07.266Z,24.42
2019-04-26T11:20:10.645Z,24.31
2019-04-26T11:21:07.286Z,24.29
2019-04-26T11:22:07.298Z,24.00
2019-04-26T11:23:08.199Z,23.82
2019-04-26T11:24:07.330Z,23.42
2019-04-26T11:25:07.358Z,23.02
2019-04-26T11:26:07.375Z,22.89
2019-04-26T11:27:09.562Z,22.75
2019-04-26T11:28:07.364Z,22.64
2019-04-26T11:29:07.378Z,22.49
2019-04-26T11:30:11.694Z,22.59
2019-04-26T11:31:07.399Z,22.83
2019-04-26T11:32:07.408Z,22.65
2019-04-26T11:33:10.859Z,22.69
2019-04-26T11:34:07.432Z,22.75
2019-04-26T11:35:07.494Z,22.72
2019-04-26T11:36:08.705Z,22.77
2019-04-26T11:37:07.461Z,22.77
2019-04-26T11:38:07.466Z,22.96
2019-04-26T11:39:07.571Z,22.80
2019-04-26T11:40:10.252Z,22.60
2019-04-26T11:41:07.584Z,22.35
2019-04-26T11:42:08.038Z,22.31
2019-04-26T11:43:07.544Z,22.28
2019-04-26T11:44:07.521Z,22.20
2019-04-26T11:45:10.723Z,22.14
2019-04-26T11:46:07.567Z,22.13
2019-04-26T11:47:07.980Z,21.94
2019-04-26T11:48:07.557Z,21.98
2019-04-26T11:49:08.316Z,21.97
2019-04-26T11:50:07.679Z,21.90
2019-04-26T11:51:07.609Z,21.94
2019-04-26T11:52:07.592Z,21.95
2019-04-26T11:53:10.209Z,21.79
2019-04-26T11:54:07.609Z,21.76
2019-04-26T11:55:07.616Z,21.74
2019-04-26T11:56:07.652Z,21.64
2019-04-26T11:57:08.285Z,21.53
2019-04-26T11:58:07.657Z,21.59
2019-04-26T11:59:07.667Z,21.61
2019-04-26T12:00:07.660Z,21.97
2019-04-26T12:01:07.694Z,22.22
2019-04-26T12:02:07.672Z,22.17
2019-04-26T12:03:07.678Z,22.01
2019-04-26T12:04:07.687Z,22.01
2019-04-26T12:05:07.725Z,22.41
2019-04-26T12:06:07.731Z,22.56
2019-04-26T12:07:08.524Z,22.37
2019-04-26T12:08:07.717Z,22.14
2019-04-26T12:09:07.727Z,22.04
2019-04-26T12:10:09.725Z,21.79
2019-04-26T12:11:17.887Z,21.64
2019-04-26T12:12:11.551Z,21.66
2019-04-26T12:13:08.452Z,21.27
2019-04-26T12:14:19.596Z,20.96
2019-04-26T12:15:08.458Z,20.91
2019-04-26T12:16:09.859Z,21.04
2019-04-26T12:17:07.819Z,21.04
2019-04-26T12:18:09.904Z,21.05
2019-04-26T12:19:07.848Z,21.09
2019-04-26T12:20:07.817Z,21.14
2019-04-26T12:21:07.824Z,21.27
2019-04-26T12:22:08.670Z,21.56
2019-04-26T12:23:07.840Z,21.67
2019-04-26T12:24:07.850Z,22.35
2019-04-26T12:25:08.295Z,23.08
2019-04-26T12:26:07.867Z,23.50
2019-04-26T12:27:10.179Z,22.99
2019-04-26T12:28:07.945Z,22.72
2019-04-26T12:29:10.570Z,23.02
2019-04-26T12:30:07.901Z,23.02
2019-04-26T12:31:07.912Z,22.84
2019-04-26T12:32:07.949Z,23.01
2019-04-26T12:33:07.930Z,22.60
2019-04-26T12:34:07.949Z,22.31
2019-04-26T12:35:07.955Z,22.01
2019-04-26T12:36:09.523Z,21.88
2019-04-26T12:37:07.997Z,21.75
2019-04-26T12:38:07.981Z,21.63
2019-04-26T12:39:08.024Z,21.48
2019-04-26T12:40:11.281Z,21.54
2019-04-26T12:41:08.012Z,21.71
2019-04-26T12:42:11.767Z,21.63
2019-04-26T12:43:08.065Z,21.63
2019-04-26T12:44:08.038Z,21.67
2019-04-26T12:45:08.045Z,22.20
2019-04-26T12:46:08.056Z,22.52
2019-04-26T12:47:08.128Z,22.38
2019-04-26T12:48:08.262Z,22.27
2019-04-26T12:49:08.083Z,22.14
2019-04-26T12:50:08.093Z,21.97
2019-04-26T12:51:11.631Z,22.09
2019-04-26T12:52:08.141Z,22.23